createdAt,value
2018-12-14T00:01:20.260Z,98187.30
2018-12-14T00:03:49.251Z,98197.62
2018-12-14T00:06:18.187Z,98207.47
2018-12-14T00:08:47.151Z,98198.76
2018-12-14T00:11:16.143Z,98205.79
2018-12-14T00:13:45.233Z,98208.78
2018-12-14T00:16:14.107Z,98203.92
2018-12-14T00:18:42.996Z,98193.19
2018-12-14T00:21:11.940Z,98196.80
2018-12-14T00:23:40.642Z,98204.78
2018-12-14T00:26:09.592Z,98204.11
2018-12-14T00:28:38.452Z,98204.97
2018-12-14T00:31:07.615Z,98205.81
2018-12-14T00:33:36.677Z,98213.55
2018-12-14T00:36:05.735Z,98210.08
2018-12-14T00:38:34.825Z,98206.16
2018-12-14T00:41:03.721Z,98216.52
2018-12-14T00:43:32.790Z,98210.45
2018-12-14T00:46:01.792Z,98213.04
2018-12-14T00:48:30.823Z,98211.29
2018-12-14T00:50:59.445Z,98214.33
2018-12-14T00:53:28.303Z,98210.46
2018-12-14T00:55:56.927Z,98213.92
2018-12-14T00:58:25.973Z,98212.16
2018-12-14T01:00:54.975Z,98203.91
2018-12-14T01:03:23.696Z,98212.08
2018-12-14T01:05:52.904Z,98216.79
2018-12-14T01:08:21.639Z,98221.39
2018-12-14T01:10:50.498Z,98217.47
2018-12-14T01:13:19.520Z,98209.24
2018-12-14T01:15:48.446Z,98204.08
2018-12-14T01:18:17.347Z,98205.78
2018-12-14T01:20:46.289Z,98205.40
2018-12-14T01:23:15.256Z,98209.62
2018-12-14T01:25:44.050Z,98209.77
2018-12-14T01:28:12.818Z,98205.50
2018-12-14T01:30:41.662Z,98199.44
2018-12-14T01:33:10.640Z,98198.09
2018-12-14T01:35:39.547Z,98192.47
2018-12-14T01:38:08.394Z,98193.45
2018-12-14T01:40:37.332Z,98194.75
2018-12-14T01:43:06.298Z,98197.34
2018-12-14T01:45:35.494Z,98204.60
2018-12-14T01:48:04.457Z,98198.09
2018-12-14T01:50:33.418Z,98200.67
2018-12-14T01:53:02.222Z,98208.44
2018-12-14T01:55:31.252Z,98209.28
2018-12-14T01:58:00.314Z,98216.19
2018-12-14T02:00:29.386Z,98223.99
2018-12-14T02:02:58.252Z,98223.17
2018-12-14T02:05:27.315Z,98222.80
2018-12-14T02:07:56.079Z,98214.13
2018-12-14T02:10:25.066Z,98203.48
2018-12-14T02:12:54.058Z,98209.98
2018-12-14T02:15:22.744Z,98213.07
2018-12-14T02:17:51.675Z,98215.72
2018-12-14T02:20:20.504Z,98210.55
2018-12-14T02:22:49.371Z,98210.25
2018-12-14T02:25:18.345Z,98203.38
2018-12-14T02:27:47.363Z,98215.02
2018-12-14T02:30:27.091Z,98218.16
2018-12-14T02:32:56.118Z,98221.98
2018-12-14T02:35:25.068Z,98221.15
2018-12-14T02:37:54.287Z,98225.86
2018-12-14T02:40:23.353Z,98225.42
2018-12-14T02:42:52.274Z,98229.78
2018-12-14T02:45:21.193Z,98228.16
2018-12-14T02:47:50.235Z,98233.34
2018-12-14T02:50:19.318Z,98235.88
2018-12-14T02:52:48.377Z,98232.05
2018-12-14T02:55:17.467Z,98228.22
2018-12-14T02:57:46.531Z,98225.57
2018-12-14T03:00:15.241Z,98222.05
2018-12-14T03:02:44.457Z,98221.14
2018-12-14T03:05:13.399Z,98226.22
2018-12-14T03:07:42.354Z,98237.38
2018-12-14T03:10:11.505Z,98233.84
2018-12-14T03:12:40.364Z,98236.58
2018-12-14T03:15:09.399Z,98240.55
2018-12-14T03:17:38.544Z,98250.40
2018-12-14T03:20:08.476Z,98248.97
2018-12-14T03:22:37.625Z,98244.17
2018-12-14T03:25:06.759Z,98242.00
2018-12-14T03:27:35.799Z,98241.09
2018-12-14T03:30:05.435Z,98243.98
2018-12-14T03:32:34.468Z,98244.03
2018-12-14T03:35:03.305Z,98245.38
2018-12-14T03:37:32.377Z,98245.77
2018-12-14T03:40:01.407Z,98244.05
2018-12-14T03:42:34.234Z,98243.25
2018-12-14T03:45:01.305Z,98246.87
2018-12-14T03:47:30.040Z,98251.30
2018-12-14T03:49:59.174Z,98253.06
2018-12-14T03:52:28.206Z,98248.78
2018-12-14T03:54:56.936Z,98251.88
2018-12-14T03:57:25.792Z,98252.28
2018-12-14T03:59:54.706Z,98252.27
2018-12-14T04:02:23.571Z,98255.27
2018-12-14T04:04:52.488Z,98255.59
2018-12-14T04:07:21.469Z,98254.80
2018-12-14T04:09:50.417Z,98256.63
2018-12-14T04:12:19.508Z,98260.09
2018-12-14T04:14:48.649Z,98251.45
2018-12-14T04:17:17.681Z,98249.70
2018-12-14T04:19:46.744Z,98255.73
2018-12-14T04:22:15.659Z,98249.14
2018-12-14T04:24:44.593Z,98247.34
2018-12-14T04:27:13.639Z,98249.63
2018-12-14T04:29:42.553Z,98247.16
2018-12-14T04:32:11.301Z,98246.27
2018-12-14T04:34:40.429Z,98250.98
2018-12-14T04:37:09.342Z,98254.45
2018-12-14T04:39:38.064Z,98261.32
2018-12-14T04:42:07.090Z,98263.89
2018-12-14T04:44:35.744Z,98266.48
2018-12-14T04:47:04.657Z,98253.98
2018-12-14T04:49:33.849Z,98263.89
2018-12-14T04:52:05.196Z,98265.14
2018-12-14T04:54:34.266Z,98277.23
2018-12-14T04:57:03.139Z,98274.92
2018-12-14T04:59:32.224Z,98270.09
2018-12-14T05:02:01.284Z,98272.30
2018-12-14T05:04:30.334Z,98278.84
2018-12-14T05:06:59.196Z,98276.30
2018-12-14T05:09:28.366Z,98271.99
2018-12-14T05:11:57.369Z,98278.78
2018-12-14T05:14:26.319Z,98277.41
2018-12-14T05:16:55.200Z,98280.78
2018-12-14T05:19:24.204Z,98274.67
2018-12-14T05:21:53.228Z,98280.11
2018-12-14T05:24:21.888Z,98281.30
2018-12-14T05:26:50.503Z,98288.17
2018-12-14T05:29:19.464Z,98295.92
2018-12-14T05:31:48.293Z,98296.33
2018-12-14T05:34:17.389Z,98298.84
2018-12-14T05:36:45.992Z,98294.07
2018-12-14T05:39:15.191Z,98300.44
2018-12-14T05:41:44.032Z,98302.23
2018-12-14T05:44:12.968Z,98307.00
2018-12-14T05:46:42.080Z,98312.55
2018-12-14T05:49:11.088Z,98314.66
2018-12-14T05:51:40.038Z,98325.84
2018-12-14T05:54:09.059Z,98324.53
2018-12-14T05:56:38.183Z,98322.86
2018-12-14T05:59:06.995Z,98322.48
2018-12-14T06:01:36.048Z,98321.61
2018-12-14T06:04:05.311Z,98321.66
2018-12-14T06:06:34.037Z,98325.63
2018-12-14T06:09:04.192Z,98337.67
2018-12-14T06:11:33.277Z,98333.79
2018-12-14T06:14:02.281Z,98328.23
2018-12-14T06:16:30.948Z,98322.75
2018-12-14T06:18:59.966Z,98319.29
2018-12-14T06:21:29.076Z,98330.57
2018-12-14T06:23:58.046Z,98323.30
2018-12-14T06:26:27.075Z,98329.26
2018-12-14T06:28:55.980Z,98334.50
2018-12-14T06:31:25.008Z,98337.64
2018-12-14T06:33:53.740Z,98336.45
2018-12-14T06:36:22.584Z,98339.52
2018-12-14T06:38:51.525Z,98344.17
2018-12-14T06:41:20.455Z,98344.59
2018-12-14T06:43:49.518Z,98347.59
2018-12-14T06:46:18.838Z,98351.82
2018-12-14T06:48:47.897Z,98358.84
2018-12-14T06:51:16.939Z,98367.91
2018-12-14T06:53:45.956Z,98372.20
2018-12-14T06:56:14.847Z,98373.56
2018-12-14T06:58:43.839Z,98369.28
2018-12-14T07:01:12.872Z,98379.23
2018-12-14T07:03:41.912Z,98380.53
2018-12-14T07:06:10.828Z,98379.63
2018-12-14T07:08:39.554Z,98386.52
2018-12-14T07:11:08.488Z,98387.58
2018-12-14T07:13:37.248Z,98383.72
2018-12-14T07:16:06.289Z,98379.50
2018-12-14T07:18:35.383Z,98381.26
2018-12-14T07:21:04.285Z,98382.22
2018-12-14T07:23:33.334Z,98372.33
2018-12-14T07:26:02.099Z,98373.26
2018-12-14T07:28:30.808Z,98368.99
2018-12-14T07:30:59.893Z,98368.61
2018-12-14T07:33:28.850Z,98358.27
2018-12-14T07:35:57.753Z,98358.72
2018-12-14T07:38:26.834Z,98362.63
2018-12-14T07:40:55.701Z,98362.20
2018-12-14T07:43:28.323Z,98367.83
2018-12-14T07:45:55.494Z,98362.63
2018-12-14T07:48:24.361Z,98369.08
2018-12-14T07:50:53.325Z,98370.77
2018-12-14T07:53:22.091Z,98374.19
2018-12-14T07:55:51.253Z,98366.33
2018-12-14T07:58:20.374Z,98373.27
2018-12-14T08:00:49.411Z,98375.44
2018-12-14T08:03:18.430Z,98371.05
2018-12-14T08:05:47.491Z,98372.69
2018-12-14T08:08:16.728Z,98378.27
2018-12-14T08:10:45.692Z,98381.17
2018-12-14T08:13:14.801Z,98390.07
2018-12-14T08:15:43.767Z,98392.42
2018-12-14T08:18:12.695Z,98395.70
2018-12-14T08:20:41.636Z,98397.79
2018-12-14T08:23:10.308Z,98393.98
2018-12-14T08:25:39.201Z,98398.31
2018-12-14T08:28:08.194Z,98396.98
2018-12-14T08:30:37.312Z,98397.02
2018-12-14T08:33:06.403Z,98398.75
2018-12-14T08:35:35.292Z,98394.02
2018-12-14T08:38:04.324Z,98397.50
2018-12-14T08:40:33.393Z,98401.34
2018-12-14T08:43:02.040Z,98390.44
2018-12-14T08:45:30.936Z,98387.75
2018-12-14T08:48:00.151Z,98389.82
2018-12-14T08:50:29.054Z,98380.22
2018-12-14T08:52:57.938Z,98378.77
2018-12-14T08:55:26.611Z,98377.48
2018-12-14T08:57:55.317Z,98375.70
2018-12-14T09:00:24.403Z,98359.16
2018-12-14T09:02:53.394Z,98357.42
2018-12-14T09:05:22.321Z,98354.16
2018-12-14T09:07:51.356Z,98358.40
2018-12-14T09:10:20.377Z,98353.20
2018-12-14T09:12:49.358Z,98361.42
2018-12-14T09:15:18.141Z,98358.34
2018-12-14T09:17:47.394Z,98356.25
2018-12-14T09:20:16.552Z,98359.34
2018-12-14T09:22:45.374Z,98365.09
2018-12-14T09:25:14.297Z,98356.05
2018-12-14T09:27:43.369Z,98358.78
2018-12-14T09:30:12.551Z,98363.74
2018-12-14T09:32:41.517Z,98355.53
2018-12-14T09:35:10.438Z,98358.59
2018-12-14T09:37:39.377Z,98353.80
2018-12-14T09:40:08.428Z,98351.56
2018-12-14T09:42:37.366Z,98356.82
2018-12-14T09:45:06.931Z,98353.82
2018-12-14T09:47:35.918Z,98354.25
2018-12-14T09:50:05.192Z,98348.11
2018-12-14T09:52:34.164Z,98344.07
2018-12-14T09:55:03.204Z,98337.30
2018-12-14T09:57:32.103Z,98335.50
2018-12-14T10:00:01.006Z,98345.50
2018-12-14T10:02:30.124Z,98344.67
2018-12-14T10:04:59.042Z,98348.53
2018-12-14T10:07:27.975Z,98343.81
2018-12-14T10:09:56.940Z,98346.45
2018-12-14T10:12:25.952Z,98340.34
2018-12-14T10:14:54.794Z,98346.17
2018-12-14T10:17:23.664Z,98343.48
2018-12-14T10:19:52.708Z,98346.89
2018-12-14T10:22:21.797Z,98336.98
2018-12-14T10:24:50.646Z,98346.48
2018-12-14T10:27:19.710Z,98343.02
2018-12-14T10:29:48.720Z,98343.84
2018-12-14T10:32:17.723Z,98343.38
2018-12-14T10:34:46.821Z,98346.66
2018-12-14T10:37:15.489Z,98342.22
2018-12-14T10:39:44.544Z,98343.41
2018-12-14T10:42:13.618Z,98348.61
2018-12-14T10:44:42.547Z,98332.78
2018-12-14T10:47:11.713Z,98336.94
2018-12-14T10:49:40.810Z,98336.45
2018-12-14T10:52:09.427Z,98327.50
2018-12-14T10:54:38.735Z,98321.91
2018-12-14T10:57:07.675Z,98322.77
2018-12-14T10:59:36.640Z,98323.63
2018-12-14T11:02:05.356Z,98314.50
2018-12-14T11:04:34.121Z,98311.89
2018-12-14T11:07:03.042Z,98315.41
2018-12-14T11:09:32.245Z,98301.64
2018-12-14T11:12:01.242Z,98306.93
2018-12-14T11:14:29.943Z,98300.88
2018-12-14T11:16:58.901Z,98297.33
2018-12-14T11:19:27.896Z,98297.65
2018-12-14T11:21:56.792Z,98301.47
2018-12-14T11:24:25.847Z,98294.19
2018-12-14T11:26:54.985Z,98294.98
2018-12-14T11:29:24.562Z,98288.02
2018-12-14T11:31:53.168Z,98275.94
2018-12-14T11:34:22.325Z,98280.54
2018-12-14T11:36:51.097Z,98279.99
2018-12-14T11:39:20.206Z,98279.14
2018-12-14T11:41:49.213Z,98279.55
2018-12-14T11:44:21.342Z,98277.42
2018-12-14T11:46:49.232Z,98279.83
2018-12-14T11:49:18.185Z,98270.43
2018-12-14T11:51:47.315Z,98268.25
2018-12-14T11:54:17.492Z,98268.23
2018-12-14T11:56:46.348Z,98262.67
2018-12-14T11:59:15.260Z,98267.03
2018-12-14T12:01:44.274Z,98269.12
2018-12-14T12:04:13.265Z,98268.29
2018-12-14T12:06:42.220Z,98256.16
2018-12-14T12:09:12.303Z,98257.38
2018-12-14T12:11:41.252Z,98267.27
2018-12-14T12:14:10.227Z,98271.56
2018-12-14T12:16:39.277Z,98268.64
2018-12-14T12:19:08.285Z,98265.98
2018-12-14T12:21:37.450Z,98269.42
2018-12-14T12:24:06.248Z,98265.11
2018-12-14T12:26:35.157Z,98268.48
2018-12-14T12:29:03.849Z,98272.28
2018-12-14T12:31:32.779Z,98273.48
2018-12-14T12:34:01.476Z,98273.00
2018-12-14T12:36:30.478Z,98266.05
2018-12-14T12:38:59.400Z,98266.91
2018-12-14T12:41:28.212Z,98262.59
2018-12-14T12:43:57.277Z,98267.42
2018-12-14T12:46:26.377Z,98272.30
2018-12-14T12:48:55.502Z,98271.05
2018-12-14T12:51:24.960Z,98263.05
2018-12-14T12:53:53.707Z,98275.18
2018-12-14T12:56:22.924Z,98272.19
2018-12-14T12:58:51.912Z,98271.77
2018-12-14T13:01:20.859Z,98269.17
2018-12-14T13:03:49.896Z,98276.04
2018-12-14T13:06:18.971Z,98278.66
2018-12-14T13:08:48.070Z,98278.66
2018-12-14T13:11:17.081Z,98283.06
2018-12-14T13:13:46.031Z,98284.78
2018-12-14T13:16:14.757Z,98290.04
2018-12-14T13:18:43.549Z,98290.91
2018-12-14T13:21:12.474Z,98292.19
2018-12-14T13:23:41.513Z,98290.88
2018-12-14T13:26:10.522Z,98289.20
2018-12-14T13:28:39.461Z,98289.66
2018-12-14T13:31:08.538Z,98285.37
2018-12-14T13:33:37.704Z,98282.75
2018-12-14T13:36:06.885Z,98290.06
2018-12-14T13:38:35.831Z,98296.30
2018-12-14T13:41:04.941Z,98294.58
2018-12-14T13:43:33.895Z,98285.47
2018-12-14T13:46:02.961Z,98295.00
2018-12-14T13:48:31.799Z,98297.17
2018-12-14T13:51:00.871Z,98294.14
2018-12-14T13:53:29.868Z,98295.02
2018-12-14T13:55:58.942Z,98285.91
2018-12-14T13:58:28.003Z,98287.20
2018-12-14T14:00:57.068Z,98276.83
2018-12-14T14:03:25.984Z,98292.04
2018-12-14T14:05:54.861Z,98288.98
2018-12-14T14:08:23.831Z,98294.59
2018-12-14T14:10:52.828Z,98297.58
2018-12-14T14:13:21.895Z,98298.10
2018-12-14T14:15:51.003Z,98309.80
2018-12-14T14:18:19.943Z,98301.95
2018-12-14T14:20:48.887Z,98295.94
2018-12-14T14:23:17.708Z,98313.31
2018-12-14T14:25:47.272Z,98305.50
2018-12-14T14:28:16.289Z,98312.40
2018-12-14T14:30:45.207Z,98304.15
2018-12-14T14:33:14.152Z,98304.95
2018-12-14T14:35:43.178Z,98311.39
2018-12-14T14:38:12.216Z,98326.97
2018-12-14T14:40:41.236Z,98312.66
2018-12-14T14:43:10.156Z,98314.41
2018-12-14T14:45:39.048Z,98313.11
2018-12-14T14:48:08.207Z,98318.31
2018-12-14T14:50:37.706Z,98322.70
2018-12-14T14:53:06.642Z,98320.95
2018-12-14T14:55:35.669Z,98293.69
2018-12-14T14:58:04.764Z,98299.36
2018-12-14T15:00:34.072Z,98291.14
2018-12-14T15:03:03.250Z,98287.66
2018-12-14T15:05:32.462Z,98293.73
2018-12-14T15:08:01.393Z,98297.22
2018-12-14T15:10:30.486Z,98308.02
2018-12-14T15:12:59.307Z,98305.43
2018-12-14T15:15:28.346Z,98298.52
2018-12-14T15:17:57.128Z,98305.88
2018-12-14T15:20:25.983Z,98304.61
2018-12-14T15:22:54.844Z,98310.27
2018-12-14T15:25:24.016Z,98308.95
2018-12-14T15:27:53.332Z,98316.30
2018-12-14T15:30:22.122Z,98315.45
2018-12-14T15:32:50.944Z,98322.83
2018-12-14T15:35:19.602Z,98328.87
2018-12-14T15:37:48.437Z,98334.94
2018-12-14T15:40:17.489Z,98332.75
2018-12-14T15:42:46.424Z,98343.16
2018-12-14T15:45:15.116Z,98350.50
2018-12-14T15:47:44.125Z,98346.16
2018-12-14T15:50:12.908Z,98337.95
2018-12-14T15:52:41.629Z,98338.38
2018-12-14T15:55:10.811Z,98328.02
2018-12-14T15:57:39.815Z,98318.94
2018-12-14T16:00:08.867Z,98323.69
2018-12-14T16:02:37.911Z,98325.84
2018-12-14T16:05:06.935Z,98325.42
2018-12-14T16:07:35.718Z,98327.16
2018-12-14T16:10:06.915Z,98321.09
2018-12-14T16:12:36.022Z,98322.39
2018-12-14T16:15:05.969Z,98320.25
2018-12-14T16:17:35.544Z,98321.52
2018-12-14T16:20:05.148Z,98324.58
2018-12-14T16:22:34.253Z,98316.80
2018-12-14T16:25:03.222Z,98320.66
2018-12-14T16:27:32.264Z,98323.71
2018-12-14T16:30:01.208Z,98329.76
2018-12-14T16:32:30.195Z,98330.19
2018-12-14T16:34:59.001Z,98333.20
2018-12-14T16:37:27.968Z,98337.08
2018-12-14T16:39:56.933Z,98344.41
2018-12-14T16:42:26.785Z,98337.06
2018-12-14T16:44:55.780Z,98324.97
2018-12-14T16:47:25.727Z,98324.52
2018-12-14T16:49:54.687Z,98335.73
2018-12-14T16:52:23.608Z,98328.80
2018-12-14T16:54:52.717Z,98323.16
2018-12-14T16:57:21.756Z,98326.17
2018-12-14T16:59:50.659Z,98327.89
2018-12-14T17:02:19.769Z,98327.05
2018-12-14T17:04:49.041Z,98324.01
2018-12-14T17:07:18.064Z,98338.30
2018-12-14T17:09:47.032Z,98340.08
2018-12-14T17:12:15.968Z,98342.25
2018-12-14T17:14:44.661Z,98342.22
2018-12-14T17:17:13.642Z,98353.47
2018-12-14T17:19:42.636Z,98351.75
2018-12-14T17:22:11.705Z,98342.67
2018-12-14T17:24:40.828Z,98350.00
2018-12-14T17:27:10.049Z,98343.91
2018-12-14T17:29:39.245Z,98338.69
2018-12-14T17:32:08.040Z,98351.59
2018-12-14T17:34:36.927Z,98354.66
2018-12-14T17:37:05.888Z,98348.16
2018-12-14T17:39:35.646Z,98354.65
2018-12-14T17:42:04.711Z,98342.11
2018-12-14T17:44:33.743Z,98339.05
2018-12-14T17:47:02.812Z,98343.81
2018-12-14T17:49:31.728Z,98332.98
2018-12-14T17:52:00.722Z,98322.98
2018-12-14T17:54:29.812Z,98331.63
2018-12-14T17:56:58.805Z,98327.70
2018-12-14T17:59:27.864Z,98328.09
2018-12-14T18:01:56.842Z,98335.30
2018-12-14T18:04:25.848Z,98334.28
2018-12-14T18:06:54.716Z,98328.14
2018-12-14T18:09:24.030Z,98332.39
2018-12-14T18:11:52.844Z,98328.48
2018-12-14T18:14:21.712Z,98325.41
2018-12-14T18:16:50.775Z,98329.23
2018-12-14T18:19:19.744Z,98328.79
2018-12-14T18:21:48.490Z,98328.92
2018-12-14T18:24:17.598Z,98323.81
2018-12-14T18:26:48.237Z,98320.78
2018-12-14T18:29:16.890Z,98322.02
2018-12-14T18:31:45.721Z,98322.33
2018-12-14T18:34:14.821Z,98327.50
2018-12-14T18:36:43.844Z,98323.20
2018-12-14T18:39:12.907Z,98321.81
2018-12-14T18:41:42.049Z,98320.28
2018-12-14T18:44:10.768Z,98318.16
2018-12-14T18:46:40.399Z,98316.38
2018-12-14T18:49:09.489Z,98306.49
2018-12-14T18:51:40.097Z,98305.52
2018-12-14T18:54:09.016Z,98317.25
2018-12-14T18:56:38.040Z,98322.87
2018-12-14T18:59:07.160Z,98324.50
2018-12-14T19:01:36.102Z,98321.95
2018-12-14T19:04:05.080Z,98336.24
2018-12-14T19:06:33.946Z,98347.08
2018-12-14T19:09:02.801Z,98347.94
2018-12-14T19:11:31.815Z,98343.30
2018-12-14T19:14:00.844Z,98335.39
2018-12-14T19:16:30.715Z,98334.34
2018-12-14T19:18:59.386Z,98333.47
2018-12-14T19:21:28.816Z,98348.02
2018-12-14T19:23:57.613Z,98341.61
2018-12-14T19:26:26.483Z,98326.11
2018-12-14T19:28:55.467Z,98323.27
2018-12-14T19:31:24.716Z,98320.73
2018-12-14T19:33:53.710Z,98331.57
2018-12-14T19:36:22.698Z,98326.39
2018-12-14T19:38:52.264Z,98316.50
2018-12-14T19:41:21.296Z,98328.52
2018-12-14T19:43:50.304Z,98326.33
2018-12-14T19:46:19.251Z,98324.16
2018-12-14T19:48:48.180Z,98328.03
2018-12-14T19:51:17.176Z,98334.98
2018-12-14T19:53:46.257Z,98333.27
2018-12-14T19:56:15.287Z,98335.88
2018-12-14T19:58:44.561Z,98353.13
2018-12-14T20:01:13.641Z,98349.71
2018-12-14T20:03:42.947Z,98356.19
2018-12-14T20:06:11.569Z,98358.43
2018-12-14T20:08:40.558Z,98354.05
2018-12-14T20:11:09.668Z,98342.33
2018-12-14T20:13:38.560Z,98338.39
2018-12-14T20:16:12.794Z,98345.69
2018-12-14T20:18:38.458Z,98341.39
2018-12-14T20:21:07.128Z,98352.22
2018-12-14T20:23:36.260Z,98353.53
2018-12-14T20:26:05.105Z,98347.10
2018-12-14T20:28:34.073Z,98344.11
2018-12-14T20:31:03.102Z,98339.89
2018-12-14T20:33:32.393Z,98326.52
2018-12-14T20:36:00.999Z,98317.44
2018-12-14T20:38:29.703Z,98318.27
2018-12-14T20:40:58.751Z,98317.39
2018-12-14T20:43:28.463Z,98305.73
2018-12-14T20:45:57.660Z,98296.20
2018-12-14T20:48:26.850Z,98306.09
2018-12-14T20:50:55.828Z,98305.25
2018-12-14T20:53:24.774Z,98307.07
2018-12-14T20:55:53.431Z,98301.94
2018-12-14T20:58:22.207Z,98299.30
2018-12-14T21:00:50.986Z,98295.00
2018-12-14T21:03:19.909Z,98303.27
2018-12-14T21:05:48.849Z,98301.52
2018-12-14T21:08:17.740Z,98295.88
2018-12-14T21:10:46.656Z,98306.28
2018-12-14T21:13:15.808Z,98297.23
2018-12-14T21:15:44.823Z,98297.69
2018-12-14T21:18:13.628Z,98292.95
2018-12-14T21:20:42.540Z,98292.08
2018-12-14T21:23:11.840Z,98290.36
2018-12-14T21:25:40.973Z,98282.95
2018-12-14T21:28:09.978Z,98281.20
2018-12-14T21:30:38.666Z,98282.08
2018-12-14T21:33:07.424Z,98288.14
2018-12-14T21:35:36.299Z,98290.77
2018-12-14T21:38:05.234Z,98289.04
2018-12-14T21:40:34.252Z,98292.50
2018-12-14T21:43:03.283Z,98284.75
2018-12-14T21:45:32.235Z,98276.97
2018-12-14T21:48:00.925Z,98272.66
2018-12-14T21:50:29.692Z,98259.70
2018-12-14T21:52:58.624Z,98266.98
2018-12-14T21:55:27.648Z,98277.80
2018-12-14T21:57:56.918Z,98263.56
2018-12-14T22:00:25.884Z,98251.03
2018-12-14T22:02:54.751Z,98257.93
2018-12-14T22:05:23.802Z,98245.84
2018-12-14T22:07:52.859Z,98249.70
2018-12-14T22:10:21.585Z,98247.98
2018-12-14T22:12:50.748Z,98246.67
2018-12-14T22:15:19.617Z,98252.27
2018-12-14T22:17:48.709Z,98256.16
2018-12-14T22:20:17.772Z,98250.13
2018-12-14T22:22:46.547Z,98254.02
2018-12-14T22:25:15.236Z,98271.74
2018-12-14T22:27:43.963Z,98269.17
2018-12-14T22:30:12.749Z,98251.02
2018-12-14T22:32:41.540Z,98260.08
2018-12-14T22:35:10.556Z,98260.50
2018-12-14T22:37:39.560Z,98266.14
2018-12-14T22:40:08.834Z,98263.98
2018-12-14T22:42:37.831Z,98257.50
2018-12-14T22:45:07.300Z,98271.79
2018-12-14T22:47:36.334Z,98252.77
2018-12-14T22:50:05.517Z,98242.41
2018-12-14T22:52:34.426Z,98251.89
2018-12-14T22:55:03.574Z,98255.80
2018-12-14T22:57:32.596Z,98240.20
2018-12-14T23:00:01.284Z,98247.11
2018-12-14T23:02:30.100Z,98258.78
2018-12-14T23:04:59.163Z,98244.53
2018-12-14T23:07:28.118Z,98243.23
2018-12-14T23:09:57.032Z,98239.80
2018-12-14T23:12:25.713Z,98231.14
2018-12-14T23:14:54.679Z,98234.55
2018-12-14T23:17:23.625Z,98228.97
2018-12-14T23:19:52.535Z,98228.97
2018-12-14T23:22:21.260Z,98224.19
2018-12-14T23:24:50.289Z,98223.31
2018-12-14T23:27:19.387Z,98212.53
2018-12-14T23:29:48.345Z,98215.97
2018-12-14T23:32:16.999Z,98214.22
2018-12-14T23:34:45.883Z,98208.16
2018-12-14T23:37:14.947Z,98203.83
2018-12-14T23:39:43.808Z,98216.32
2018-12-14T23:42:12.887Z,98217.20
2018-12-14T23:44:41.649Z,98211.17
2018-12-14T23:47:10.580Z,98221.50
2018-12-14T23:49:39.513Z,98214.19
2018-12-14T23:52:08.266Z,98213.77
2018-12-14T23:54:37.342Z,98214.67
2018-12-14T23:57:12.120Z,98206.50
2018-12-14T23:59:37.500Z,98210.83
